createdAt,value
2019-03-01T05:10:41.411Z,2.23
2019-03-01T05:13:16.267Z,3.33
2019-03-01T06:00:14.456Z,3.20
2019-03-01T06:03:08.432Z,3.93
2019-03-01T06:05:36.919Z,4.50
2019-03-01T06:08:25.129Z,6.23
2019-03-01T06:11:25.395Z,2.40
2019-03-01T06:14:13.433Z,4.07
2019-03-01T07:00:59.083Z,6.80
2019-03-01T07:03:21.932Z,5.60
2019-03-01T07:05:44.470Z,5.13
2019-03-01T07:08:07.023Z,2.27
2019-03-01T07:10:29.536Z,2.50
2019-03-01T07:12:51.960Z,2.37
2019-03-01T08:02:18.427Z,4.43
2019-03-01T08:04:40.866Z,7.47
2019-03-01T08:07:03.307Z,6.87
2019-03-01T08:09:25.756Z,8.03
2019-03-01T08:11:48.191Z,5.47
2019-03-01T08:14:10.627Z,7.77
2019-03-01T08:42:48.747Z,2.23
2019-03-01T08:45:13.287Z,2.70
2019-03-01T08:47:35.711Z,1.80
2019-03-01T08:49:58.179Z,6.53
2019-03-01T08:52:20.696Z,1.73
2019-03-01T08:54:43.122Z,3.03
2019-03-01T09:00:13.133Z,2.10
2019-03-01T09:02:35.767Z,4.10
2019-03-01T09:04:58.198Z,2.43
2019-03-01T09:07:20.653Z,2.33
2019-03-01T09:09:44.279Z,2.57
2019-03-01T09:12:06.835Z,2.20
2019-03-01T09:14:29.394Z,3.43
2019-03-01T10:02:35.922Z,1.73
2019-03-01T10:04:58.517Z,1.70
2019-03-01T10:07:21.055Z,2.80
2019-03-01T10:09:45.137Z,1.90
2019-03-01T10:12:08.948Z,2.33
2019-03-01T10:14:31.559Z,1.43
2019-03-01T11:01:39.357Z,1.63
2019-03-01T11:04:02.013Z,1.37
2019-03-01T11:06:24.547Z,1.63
2019-03-01T11:08:47.005Z,2.13
2019-03-01T11:11:09.432Z,1.03
2019-03-01T11:13:32.959Z,0.90
2019-03-01T11:41:49.206Z,0.90
2019-03-01T11:44:11.660Z,1.40
2019-03-01T11:46:34.188Z,0.93
2019-03-01T11:48:56.831Z,1.70
2019-03-01T11:51:19.537Z,2.90
2019-03-01T11:53:42.007Z,1.83
2019-03-01T11:56:24.248Z,2.10
2019-03-01T11:58:59.464Z,0.90
2019-03-01T12:01:35.261Z,0.57
2019-03-01T12:04:10.940Z,1.33
2019-03-01T12:06:46.018Z,1.43
2019-03-01T12:09:21.023Z,0.60
2019-03-01T12:11:55.999Z,0.80
2019-03-01T12:14:30.977Z,1.50
2019-03-01T12:16:53.858Z,1.27
2019-03-01T12:19:16.548Z,2.17
2019-03-01T12:21:39.263Z,0.80
2019-03-01T12:24:01.687Z,1.27
2019-03-01T12:26:24.233Z,1.40
2019-03-01T12:28:46.686Z,2.87
2019-03-01T12:31:09.112Z,1.40
2019-03-01T12:33:32.067Z,1.53
2019-03-01T12:35:54.594Z,1.30
2019-03-01T12:38:17.019Z,1.10
2019-03-01T12:40:39.508Z,0.90
2019-03-01T12:43:02.040Z,0.70
2019-03-01T12:45:24.483Z,0.93
2019-03-01T12:47:47.046Z,2.33
2019-03-01T12:50:09.943Z,1.73
2019-03-01T12:52:32.387Z,1.53
2019-03-01T12:54:54.935Z,2.37
2019-03-01T12:57:17.374Z,2.80
2019-03-01T12:59:39.961Z,1.57
2019-03-01T13:02:02.519Z,1.73
2019-03-01T13:04:27.319Z,1.73
2019-03-01T13:06:49.898Z,3.13
2019-03-01T13:09:15.867Z,1.87
2019-03-01T13:11:38.299Z,5.80
2019-03-01T13:14:00.730Z,3.23
2019-03-01T13:39:18.396Z,2.47
2019-03-01T13:41:41.266Z,4.03
2019-03-01T13:44:04.296Z,2.90
2019-03-01T13:46:46.359Z,1.73
2019-03-01T13:49:20.953Z,2.70
2019-03-01T13:51:56.091Z,2.73
2019-03-01T13:54:31.096Z,3.27
2019-03-01T13:57:08.421Z,2.97
2019-03-01T13:59:44.066Z,2.03
2019-03-01T14:02:19.457Z,2.83
2019-03-01T14:07:29.653Z,3.70
2019-03-01T14:10:06.105Z,4.97
2019-03-01T14:12:44.615Z,3.90
2019-03-01T15:02:49.320Z,4.87
2019-03-01T15:05:17.818Z,6.00
2019-03-01T15:07:36.439Z,6.73
2019-03-01T15:09:59.201Z,5.73
2019-03-01T15:12:34.115Z,4.97
2019-03-01T15:18:00.423Z,6.37
2019-03-01T15:20:35.339Z,4.93
2019-03-01T15:23:10.581Z,7.27
2019-03-01T15:25:48.571Z,5.70
2019-03-01T15:28:22.912Z,6.57
2019-03-01T15:30:57.836Z,9.17
2019-03-01T15:33:33.087Z,9.37
2019-03-01T15:36:08.289Z,9.77
2019-03-01T15:38:43.387Z,8.50
2019-03-01T15:41:18.356Z,7.70
2019-03-01T15:43:53.470Z,7.27
2019-03-01T15:46:28.483Z,7.83
2019-03-01T15:49:05.133Z,9.63
2019-03-01T15:51:40.455Z,10.77
2019-03-01T15:54:15.583Z,12.67
2019-03-01T15:56:50.594Z,10.80
2019-03-01T15:59:25.828Z,8.57
2019-03-01T16:02:00.788Z,10.57
2019-03-01T16:04:36.292Z,8.80
2019-03-01T16:07:11.289Z,7.83
2019-03-01T16:09:46.403Z,9.27
2019-03-01T16:12:21.579Z,10.07
2019-03-01T16:14:57.383Z,10.03
2019-03-01T17:01:45.292Z,8.23
2019-03-01T17:04:07.728Z,7.37
2019-03-01T17:06:30.256Z,7.00
2019-03-01T17:08:53.900Z,7.67
2019-03-01T17:11:16.414Z,7.10
2019-03-01T17:13:39.044Z,8.40
2019-03-01T18:02:30.762Z,15.87
2019-03-01T18:04:53.290Z,15.67
2019-03-01T18:07:15.714Z,18.13
2019-03-01T18:09:38.169Z,16.17
2019-03-01T18:12:00.595Z,18.07
2019-03-01T18:14:23.116Z,18.87
2019-03-01T19:02:52.480Z,30.27
2019-03-01T19:05:27.559Z,28.77
2019-03-01T19:08:04.775Z,27.57
2019-03-01T19:10:39.894Z,27.23
2019-03-01T19:13:15.022Z,26.83
2019-03-01T20:00:16.813Z,30.93
2019-03-01T20:02:39.362Z,32.20
2019-03-01T20:05:01.844Z,26.60
2019-03-01T20:07:24.498Z,29.03
2019-03-01T20:10:07.222Z,32.63
2019-03-01T20:12:44.491Z,33.63
2019-03-01T21:01:37.341Z,44.10
2019-03-01T21:04:11.666Z,45.17
2019-03-01T21:06:46.826Z,41.27
2019-03-01T21:09:21.927Z,47.73
2019-03-01T21:11:57.760Z,54.67
2019-03-01T21:14:34.836Z,56.83
